Jork Reliance — V2CL2 — position and weather

sailwx.info

Track history (hours):
 
Tides and Currents Weather Stations Pressure Air Temp Water Temp Dewpoint Dewpoint Depression Visibility Wind Speed Wind Dir Waves Ship Positions

Jork Reliance

Last reported at 2014-Nov-25 21:32 UTC. Time now 2014-Nov-25 21:59 UTC.
Position N 51°19' E 004°20'.

Length 141 m; draft 6.5 m.

Type: Ship (hazmat cat A). MMSI: 305033000.

Date/timePositionNaut miles runAvg speedWind from/ knotsBaromVisibWave heightAir tempDewpointWater temp
2014-Nov-25 21:32N 51°19' E 004°20'2 2.0
2014-Nov-25 20:34N 51°21' E 004°17'0 0.1
2014-Nov-25 19:34N 51°21' E 004°17'0 0.0
2014-Nov-25 18:33N 51°21' E 004°17'5 4.9
2014-Nov-25 17:33N 51°24' E 004°11'7 7.1
2014-Nov-25 16:33N 51°26' E 004°00'1010.5
2014-Nov-25 15:33N 51°22' E 003°45'10 9.7
2014-Nov-25 14:33N 51°25' E 003°30'1111.3
2014-Nov-25 13:33N 51°24' E 003°12'1312.6
2014-Nov-25 12:33N 51°22' E 002°52'12 6.0
2014-Nov-25 10:32N 51°24' E 002°33'0 0.0
2014-Nov-25 09:32N 51°24' E 002°33'0 0.0
2014-Nov-25 08:26N 51°24' E 002°33'0 0.0
2014-Nov-25 07:08N 51°24' E 002°33'0 0.0
2014-Nov-25 05:26N 51°24' E 002°33'0 0.1
2014-Nov-25 04:29N 51°24' E 002°34'0 0.0
2014-Nov-25 03:23N 51°24' E 002°34'0 0.0
2014-Nov-25 02:23N 51°24' E 002°34'0 0.0
2014-Nov-25 01:32N 51°24' E 002°34'0 0.1
2014-Nov-24 23:14N 51°24' E 002°33'0 0.0
2014-Nov-24 22:26N 51°24' E 002°33'0 0.0
2014-Nov-24 21:23N 51°24' E 002°33'0 0.0
2014-Nov-24 18:23N 51°24' E 002°33'0 0.0
2014-Nov-24 17:29N 51°24' E 002°33'0 0.2
2014-Nov-24 16:23N 51°24' E 002°34'0 0.0
2014-Nov-24 15:29N 51°24' E 002°34'0 0.0
2014-Nov-24 14:32N 51°24' E 002°34'0 0.0
2014-Nov-24 13:08N 51°24' E 002°34'0 0.0
2014-Nov-24 12:32N 51°24' E 002°34'0 0.2
2014-Nov-24 11:17N 51°24' E 002°33'0 0.1
2014-Nov-24 10:23N 51°24' E 002°33'1 0.7
2014-Nov-24 09:29N 51°23' E 002°33'1010.6
2014-Nov-24 08:33N 51°19' E 002°19'1110.8
2014-Nov-24 07:33N 51°13' E 002°05'1211.8
2014-Nov-24 06:33N 51°07' E 001°49'1111.4
2014-Nov-24 05:33N 50°59' E 001°36'1111.2
2014-Nov-24 04:33N 50°49' E 001°26'3811.7
2014-Nov-24 01:18N 50°26' E 000°39'1012.3
2014-Nov-24 00:29N 50°23' E 000°24'296 7.4
2014-Nov-22 08:23N 45°37' W 001°29'59 2.4
2014-Nov-21 08:28N 44°54' W 000°32'0 0.0
2014-Nov-21 07:31N 44°54' W 000°32'0 0.0
2014-Nov-21 06:28N 44°54' W 000°32'0 0.0
2014-Nov-21 04:33N 44°54' W 000°32'1 1.5
2014-Nov-21 03:33N 44°56' W 000°33'1512.8
2014-Nov-21 02:21N 45°10' W 000°43'3116.2
2014-Nov-21 00:27N 45°36' W 001°05'1314.4
2014-Nov-20 23:33N 45°36' W 001°23'4 0.3
2014-Nov-20 10:31N 45°35' W 001°29'11 2.1
2014-Nov-20 05:32N 45°40' W 001°42'1211.5
2014-Nov-20 04:31N 45°44' W 001°58'1111.3
2014-Nov-20 03:32N 45°49' W 002°12'2411.5
2014-Nov-20 01:25N 46°05' W 002°39'230 6.4
2014-Nov-18 13:23N 49°40' W 000°36'1113.7
2014-Nov-18 12:33N 49°35' W 000°20'1313.3
2014-Nov-18 11:33N 49°30' W 000°01'6 6.4
2014-Nov-18 10:33N 49°28' E 000°08'0 0.0
2014-Nov-18 09:33N 49°28' E 000°08'0 0.0
2014-Nov-18 08:33N 49°28' E 000°08'0 0.0
2014-Nov-18 07:33N 49°28' E 000°08'0 0.0
2014-Nov-18 06:33N 49°28' E 000°08'0 0.0
2014-Nov-18 05:33N 49°28' E 000°08'0 0.0
2014-Nov-18 04:33N 49°28' E 000°08'0 0.0
2014-Nov-18 03:33N 49°28' E 000°08'0 0.0
2014-Nov-18 02:33N 49°28' E 000°08'1 1.2
2014-Nov-18 01:33N 49°28' E 000°06'1312.8
2014-Nov-18 00:33N 49°34' W 000°11'5512.4
2014-Nov-17 20:09N 50°28' E 000°04'915.8
2014-Nov-17 19:33N 50°32' E 000°17'1615.6
2014-Nov-17 18:33N 50°40' E 000°38'1515.1
2014-Nov-17 17:33N 50°48' E 000°58'1615.6
2014-Nov-17 16:33N 50°59' E 001°17'1716.8
2014-Nov-17 15:34N 51°09' E 001°37'1716.6
2014-Nov-17 14:34N 51°22' E 001°55'1414.3
2014-Nov-17 13:33N 51°21' E 002°18'1616.4
2014-Nov-17 12:33N 51°23' E 002°44'1514.7
2014-Nov-17 11:33N 51°24' E 003°07'1616.2
2014-Nov-17 10:34N 51°26' E 003°33'1312.8
2014-Nov-17 09:33N 51°21' E 003°53'8 8.1
2014-Nov-17 08:34N 51°22' E 004°05'8 7.6
2014-Nov-17 07:34N 51°21' E 004°17'0 0.1
2014-Nov-17 06:34N 51°21' E 004°17'2 1.6
2014-Nov-17 05:33N 51°19' E 004°19'0 0.0
2014-Nov-17 04:33N 51°19' E 004°19'0 0.0
2014-Nov-17 03:32N 51°19' E 004°19'0 0.0
2014-Nov-17 02:33N 51°19' E 004°19'0 0.0
2014-Nov-17 01:33N 51°19' E 004°19'0 0.0
2014-Nov-17 00:32N 51°19' E 004°19'0 0.0
2014-Nov-16 23:32N 51°19' E 004°19'0 0.0
2014-Nov-16 22:30N 51°19' E 004°19'0 0.0
2014-Nov-16 21:29N 51°19' E 004°19'0 0.0
2014-Nov-16 20:32N 51°19' E 004°19'0 0.0
2014-Nov-16 19:32N 51°19' E 004°19'0 0.0
2014-Nov-16 18:32N 51°19' E 004°19'0 0.0
2014-Nov-16 17:26N 51°19' E 004°19'0 0.0
2014-Nov-16 16:32N 51°19' E 004°19'0 0.0
2014-Nov-16 15:32N 51°19' E 004°19'0 0.0
2014-Nov-16 14:29N 51°19' E 004°19'0 0.0
2014-Nov-16 13:32N 51°19' E 004°19'0 0.0
2014-Nov-16 12:33N 51°19' E 004°19'0 0.0
2014-Nov-16 11:33N 51°19' E 004°19'1 0.9
2014-Nov-16 10:33N 51°20' E 004°18'1 0.9
2014-Nov-16 09:34N 51°21' E 004°17'1 0.5
2014-Nov-16 08:34N 51°21' E 004°16'5 4.8
2014-Nov-16 07:33N 51°23' E 004°09'7 7.4
2014-Nov-16 06:33N 51°25' E 003°58'10 9.7
2014-Nov-16 05:34N 51°23' E 003°43'1110.5
2014-Nov-16 04:33N 51°25' E 003°26'1312.6
2014-Nov-16 03:33N 51°24' E 003°06'1312.5
2014-Nov-16 02:31N 51°22' E 002°45'5 2.3
2014-Nov-16 00:24N 51°24' E 002°39'0 0.1
2014-Nov-15 23:18N 51°24' E 002°39'0 0.0
2014-Nov-15 22:09N 51°24' E 002°39'  
Track history (hours):
 
Tides and Currents Weather Stations Pressure Air Temp Water Temp Dewpoint Dewpoint Depression Visibility Wind Speed Wind Dir Waves Ship Positions

Jork Reliance

Last reported at 2014-Nov-25 21:32 UTC. Time now 2014-Nov-25 21:59 UTC.
Position N 51°19' E 004°20'.

Length 141 m; draft 6.5 m.

Type: Ship (hazmat cat A). MMSI: 305033000.

Date/timePositionNaut miles runAvg speedWind from/ knotsBaromVisibWave heightAir tempDewpointWater temp
2014-Nov-25 21:32N 51°19' E 004°20'2 2.0
2014-Nov-25 20:34N 51°21' E 004°17'0 0.1
2014-Nov-25 19:34N 51°21' E 004°17'0 0.0
2014-Nov-25 18:33N 51°21' E 004°17'5 4.9
2014-Nov-25 17:33N 51°24' E 004°11'7 7.1
2014-Nov-25 16:33N 51°26' E 004°00'1010.5
2014-Nov-25 15:33N 51°22' E 003°45'10 9.7
2014-Nov-25 14:33N 51°25' E 003°30'1111.3
2014-Nov-25 13:33N 51°24' E 003°12'1312.6
2014-Nov-25 12:33N 51°22' E 002°52'12 6.0
2014-Nov-25 10:32N 51°24' E 002°33'0 0.0
2014-Nov-25 09:32N 51°24' E 002°33'0 0.0
2014-Nov-25 08:26N 51°24' E 002°33'0 0.0
2014-Nov-25 07:08N 51°24' E 002°33'0 0.0
2014-Nov-25 05:26N 51°24' E 002°33'0 0.1
2014-Nov-25 04:29N 51°24' E 002°34'0 0.0
2014-Nov-25 03:23N 51°24' E 002°34'0 0.0
2014-Nov-25 02:23N 51°24' E 002°34'0 0.0
2014-Nov-25 01:32N 51°24' E 002°34'0 0.1
2014-Nov-24 23:14N 51°24' E 002°33'0 0.0
2014-Nov-24 22:26N 51°24' E 002°33'0 0.0
2014-Nov-24 21:23N 51°24' E 002°33'0 0.0
2014-Nov-24 18:23N 51°24' E 002°33'0 0.0
2014-Nov-24 17:29N 51°24' E 002°33'0 0.2
2014-Nov-24 16:23N 51°24' E 002°34'0 0.0
2014-Nov-24 15:29N 51°24' E 002°34'0 0.0
2014-Nov-24 14:32N 51°24' E 002°34'0 0.0
2014-Nov-24 13:08N 51°24' E 002°34'0 0.0
2014-Nov-24 12:32N 51°24' E 002°34'0 0.2
2014-Nov-24 11:17N 51°24' E 002°33'0 0.1
2014-Nov-24 10:23N 51°24' E 002°33'1 0.7
2014-Nov-24 09:29N 51°23' E 002°33'1010.6
2014-Nov-24 08:33N 51°19' E 002°19'1110.8
2014-Nov-24 07:33N 51°13' E 002°05'1211.8
2014-Nov-24 06:33N 51°07' E 001°49'1111.4
2014-Nov-24 05:33N 50°59' E 001°36'1111.2
2014-Nov-24 04:33N 50°49' E 001°26'3811.7
2014-Nov-24 01:18N 50°26' E 000°39'1012.3
2014-Nov-24 00:29N 50°23' E 000°24'296 7.4
2014-Nov-22 08:23N 45°37' W 001°29'59 2.4
2014-Nov-21 08:28N 44°54' W 000°32'0 0.0
2014-Nov-21 07:31N 44°54' W 000°32'0 0.0
2014-Nov-21 06:28N 44°54' W 000°32'0 0.0
2014-Nov-21 04:33N 44°54' W 000°32'1 1.5
2014-Nov-21 03:33N 44°56' W 000°33'1512.8
2014-Nov-21 02:21N 45°10' W 000°43'3116.2
2014-Nov-21 00:27N 45°36' W 001°05'1314.4
2014-Nov-20 23:33N 45°36' W 001°23'4 0.3
2014-Nov-20 10:31N 45°35' W 001°29'11 2.1
2014-Nov-20 05:32N 45°40' W 001°42'1211.5
2014-Nov-20 04:31N 45°44' W 001°58'1111.3
2014-Nov-20 03:32N 45°49' W 002°12'2411.5
2014-Nov-20 01:25N 46°05' W 002°39'230 6.4
2014-Nov-18 13:23N 49°40' W 000°36'1113.7
2014-Nov-18 12:33N 49°35' W 000°20'1313.3
2014-Nov-18 11:33N 49°30' W 000°01'6 6.4
2014-Nov-18 10:33N 49°28' E 000°08'0 0.0
2014-Nov-18 09:33N 49°28' E 000°08'0 0.0
2014-Nov-18 08:33N 49°28' E 000°08'0 0.0
2014-Nov-18 07:33N 49°28' E 000°08'0 0.0
2014-Nov-18 06:33N 49°28' E 000°08'0 0.0
2014-Nov-18 05:33N 49°28' E 000°08'0 0.0
2014-Nov-18 04:33N 49°28' E 000°08'0 0.0
2014-Nov-18 03:33N 49°28' E 000°08'0 0.0
2014-Nov-18 02:33N 49°28' E 000°08'1 1.2
2014-Nov-18 01:33N 49°28' E 000°06'1312.8
2014-Nov-18 00:33N 49°34' W 000°11'5512.4
2014-Nov-17 20:09N 50°28' E 000°04'915.8
2014-Nov-17 19:33N 50°32' E 000°17'1615.6
2014-Nov-17 18:33N 50°40' E 000°38'1515.1
2014-Nov-17 17:33N 50°48' E 000°58'1615.6
2014-Nov-17 16:33N 50°59' E 001°17'1716.8
2014-Nov-17 15:34N 51°09' E 001°37'1716.6
2014-Nov-17 14:34N 51°22' E 001°55'1414.3
2014-Nov-17 13:33N 51°21' E 002°18'1616.4
2014-Nov-17 12:33N 51°23' E 002°44'1514.7
2014-Nov-17 11:33N 51°24' E 003°07'1616.2
2014-Nov-17 10:34N 51°26' E 003°33'1312.8
2014-Nov-17 09:33N 51°21' E 003°53'8 8.1
2014-Nov-17 08:34N 51°22' E 004°05'8 7.6
2014-Nov-17 07:34N 51°21' E 004°17'0 0.1
2014-Nov-17 06:34N 51°21' E 004°17'2 1.6
2014-Nov-17 05:33N 51°19' E 004°19'0 0.0
2014-Nov-17 04:33N 51°19' E 004°19'0 0.0
2014-Nov-17 03:32N 51°19' E 004°19'0 0.0
2014-Nov-17 02:33N 51°19' E 004°19'0 0.0
2014-Nov-17 01:33N 51°19' E 004°19'0 0.0
2014-Nov-17 00:32N 51°19' E 004°19'0 0.0
2014-Nov-16 23:32N 51°19' E 004°19'0 0.0
2014-Nov-16 22:30N 51°19' E 004°19'0 0.0
2014-Nov-16 21:29N 51°19' E 004°19'0 0.0
2014-Nov-16 20:32N 51°19' E 004°19'0 0.0
2014-Nov-16 19:32N 51°19' E 004°19'0 0.0
2014-Nov-16 18:32N 51°19' E 004°19'0 0.0
2014-Nov-16 17:26N 51°19' E 004°19'0 0.0
2014-Nov-16 16:32N 51°19' E 004°19'0 0.0
2014-Nov-16 15:32N 51°19' E 004°19'0 0.0
2014-Nov-16 14:29N 51°19' E 004°19'0 0.0
2014-Nov-16 13:32N 51°19' E 004°19'0 0.0
2014-Nov-16 12:33N 51°19' E 004°19'0 0.0
2014-Nov-16 11:33N 51°19' E 004°19'1 0.9
2014-Nov-16 10:33N 51°20' E 004°18'1 0.9
2014-Nov-16 09:34N 51°21' E 004°17'1 0.5
2014-Nov-16 08:34N 51°21' E 004°16'5 4.8
2014-Nov-16 07:33N 51°23' E 004°09'7 7.4
2014-Nov-16 06:33N 51°25' E 003°58'10 9.7
2014-Nov-16 05:34N 51°23' E 003°43'1110.5
2014-Nov-16 04:33N 51°25' E 003°26'1312.6
2014-Nov-16 03:33N 51°24' E 003°06'1312.5
2014-Nov-16 02:31N 51°22' E 002°45'5 2.3
2014-Nov-16 00:24N 51°24' E 002°39'0 0.1
2014-Nov-15 23:18N 51°24' E 002°39'0 0.0
2014-Nov-15 22:09N 51°24' E 002°39'  

Dump ship's entire track history